LIPH/TSF METAR and TAF weather

Enter ICAO airport designator
Station Type Date Time Source
LIPH METAR 2021/07/30 05:50 UTC NOAA

LIPH 300550Z 05004KT 010V070 CAVOK 24/20 Q1012


Station Type Date Time Source
LIPH Decoded METAR 2021/07/30 05:50 UTC NOAA

Treviso / S. Angelo, Italy (LIPH) 45-39N 012-11E 23M
Jul 30, 2021 - 01:50 AM EDT / 2021.07.30 0550 UTC
Wind: from the NE (050 degrees) at 5 MPH (4 KT) (direction variable):0
Visibility: greater than 7 mile(s):0
Temperature: 75 F (24 C)
Dew Point: 68 F (20 C)
Relative Humidity: 78%
Pressure (altimeter): 29.88 in. Hg (1012 hPa)
ob: LIPH 300550Z 05004KT 010V070 CAVOK 24/20 Q1012
cycle: 6

Station Type Date Time Source
LIPH TAF 2021/07/30 06:21 UTC NOAA

TAF LIPH 300500Z 3006/3106 VRB05KT 9999 FEW030
BECMG 3010/3012 17010KT
TEMPO 3016/3020 SHRA
BECMG 3017/3019 VRB05KT

Example: see airport list